sensor_id;sensor_type;location;lat;lon;timestamp;temperature;humidity
28010;DHT22;15334;49.494;8.410;2023-04-16T00:01:24;9.40;99.90
28010;DHT22;15334;49.494;8.410;2023-04-16T00:03:53;9.40;99.90
28010;DHT22;15334;49.494;8.410;2023-04-16T00:06:22;9.50;99.90
28010;DHT22;15334;49.494;8.410;2023-04-16T00:08:50;9.40;99.90
28010;DHT22;15334;49.494;8.410;2023-04-16T00:11:18;9.40;99.90
28010;DHT22;15334;49.494;8.410;2023-04-16T00:14:15;9.40;99.90
28010;DHT22;15334;49.494;8.410;2023-04-16T00:17:24;9.40;99.90
28010;DHT22;15334;49.494;8.410;2023-04-16T00:20:02;9.40;99.90
28010;DHT22;15334;49.494;8.410;2023-04-16T00:22:46;9.30;99.90
28010;DHT22;15334;49.494;8.410;2023-04-16T00:25:31;9.30;99.90
28010;DHT22;15334;49.494;8.410;2023-04-16T00:28:22;9.30;99.90
28010;DHT22;15334;49.494;8.410;2023-04-16T00:31:06;9.30;99.90
28010;DHT22;15334;49.494;8.410;2023-04-16T00:33:53;9.30;99.90
28010;DHT22;15334;49.494;8.410;2023-04-16T00:36:52;9.30;99.90
28010;DHT22;15334;49.494;8.410;2023-04-16T00:39:42;9.30;99.90
28010;DHT22;15334;49.494;8.410;2023-04-16T00:45:47;9.30;99.90
28010;DHT22;15334;49.494;8.410;2023-04-16T00:48:16;9.30;99.90
28010;DHT22;15334;49.494;8.410;2023-04-16T00:50:44;9.30;99.90
28010;DHT22;15334;49.494;8.410;2023-04-16T00:53:15;9.30;99.90
28010;DHT22;15334;49.494;8.410;2023-04-16T00:55:44;9.30;99.90
28010;DHT22;15334;49.494;8.410;2023-04-16T00:58:12;9.30;99.90
28010;DHT22;15334;49.494;8.410;2023-04-16T01:00:41;9.30;99.90
28010;DHT22;15334;49.494;8.410;2023-04-16T01:03:10;9.20;99.90
28010;DHT22;15334;49.494;8.410;2023-04-16T01:05:57;9.20;99.90
28010;DHT22;15334;49.494;8.410;2023-04-16T01:16:36;9.10;99.90
28010;DHT22;15334;49.494;8.410;2023-04-16T01:20:09;9.20;99.90
28010;DHT22;15334;49.494;8.410;2023-04-16T01:30:34;9.30;99.90
28010;DHT22;15334;49.494;8.410;2023-04-16T01:33:38;9.20;99.90
28010;DHT22;15334;49.494;8.410;2023-04-16T01:36:37;9.20;99.90
28010;DHT22;15334;49.494;8.410;2023-04-16T01:39:07;9.20;99.90
28010;DHT22;15334;49.494;8.410;2023-04-16T01:41:39;9.30;99.90
28010;DHT22;15334;49.494;8.410;2023-04-16T01:44:07;9.20;99.90
28010;DHT22;15334;49.494;8.410;2023-04-16T01:46:36;9.20;99.90
28010;DHT22;15334;49.494;8.410;2023-04-16T01:49:06;9.30;99.90
28010;DHT22;15334;49.494;8.410;2023-04-16T01:51:35;9.30;99.90
28010;DHT22;15334;49.494;8.410;2023-04-16T01:54:04;9.30;99.90
28010;DHT22;15334;49.494;8.410;2023-04-16T01:56:33;9.30;99.90
28010;DHT22;15334;49.494;8.410;2023-04-16T01:59:02;9.30;99.90
28010;DHT22;15334;49.494;8.410;2023-04-16T02:01:31;9.30;99.90
28010;DHT22;15334;49.494;8.410;2023-04-16T02:04:00;9.20;99.90
28010;DHT22;15334;49.494;8.410;2023-04-16T02:06:28;9.30;99.90
28010;DHT22;15334;49.494;8.410;2023-04-16T02:08:57;9.30;99.90
28010;DHT22;15334;49.494;8.410;2023-04-16T02:11:25;9.20;99.90
28010;DHT22;15334;49.494;8.410;2023-04-16T02:13:53;9.30;99.90
28010;DHT22;15334;49.494;8.410;2023-04-16T02:16:23;9.40;99.90
28010;DHT22;15334;49.494;8.410;2023-04-16T02:18:52;9.40;99.90
28010;DHT22;15334;49.494;8.410;2023-04-16T02:21:20;9.40;99.90
28010;DHT22;15334;49.494;8.410;2023-04-16T02:23:48;9.40;99.90
28010;DHT22;15334;49.494;8.410;2023-04-16T02:26:17;9.30;99.90
28010;DHT22;15334;49.494;8.410;2023-04-16T02:28:45;9.30;99.90
28010;DHT22;15334;49.494;8.410;2023-04-16T02:31:13;9.40;99.90
28010;DHT22;15334;49.494;8.410;2023-04-16T02:33:45;9.40;99.90
28010;DHT22;15334;49.494;8.410;2023-04-16T02:36:13;9.30;99.90
28010;DHT22;15334;49.494;8.410;2023-04-16T02:38:41;9.30;99.90
28010;DHT22;15334;49.494;8.410;2023-04-16T02:41:10;9.30;99.90
28010;DHT22;15334;49.494;8.410;2023-04-16T02:43:38;9.40;99.90
28010;DHT22;15334;49.494;8.410;2023-04-16T02:46:06;9.40;99.90
28010;DHT22;15334;49.494;8.410;2023-04-16T02:48:35;9.30;99.90
28010;DHT22;15334;49.494;8.410;2023-04-16T02:51:05;9.30;99.90
28010;DHT22;15334;49.494;8.410;2023-04-16T02:53:33;9.30;99.90
28010;DHT22;15334;49.494;8.410;2023-04-16T02:56:01;9.30;99.90
28010;DHT22;15334;49.494;8.410;2023-04-16T02:58:29;9.30;99.90
28010;DHT22;15334;49.494;8.410;2023-04-16T03:00:57;9.30;99.90
28010;DHT22;15334;49.494;8.410;2023-04-16T03:03:25;9.30;99.90
28010;DHT22;15334;49.494;8.410;2023-04-16T03:05:54;9.20;99.90
28010;DHT22;15334;49.494;8.410;2023-04-16T03:08:23;9.30;99.90
28010;DHT22;15334;49.494;8.410;2023-04-16T03:10:52;9.20;99.90
28010;DHT22;15334;49.494;8.410;2023-04-16T03:13:20;9.20;99.90
28010;DHT22;15334;49.494;8.410;2023-04-16T03:15:48;9.20;99.90
28010;DHT22;15334;49.494;8.410;2023-04-16T03:18:17;9.20;99.90
28010;DHT22;15334;49.494;8.410;2023-04-16T03:20:45;9.20;99.90
28010;DHT22;15334;49.494;8.410;2023-04-16T03:23:18;9.10;99.90
28010;DHT22;15334;49.494;8.410;2023-04-16T03:25:47;9.20;99.90
28010;DHT22;15334;49.494;8.410;2023-04-16T03:28:16;9.20;99.90
28010;DHT22;15334;49.494;8.410;2023-04-16T03:30:49;9.20;99.90
28010;DHT22;15334;49.494;8.410;2023-04-16T03:33:17;9.20;99.90
28010;DHT22;15334;49.494;8.410;2023-04-16T03:35:46;9.20;99.90
28010;DHT22;15334;49.494;8.410;2023-04-16T03:38:22;9.20;99.90
28010;DHT22;15334;49.494;8.410;2023-04-16T03:40:51;9.10;99.90
28010;DHT22;15334;49.494;8.410;2023-04-16T03:43:19;9.20;99.90
28010;DHT22;15334;49.494;8.410;2023-04-16T03:45:47;9.10;99.90
28010;DHT22;15334;49.494;8.410;2023-04-16T03:48:16;9.10;99.90
28010;DHT22;15334;49.494;8.410;2023-04-16T03:50:44;9.10;99.90
28010;DHT22;15334;49.494;8.410;2023-04-16T03:53:14;9.10;99.90
28010;DHT22;15334;49.494;8.410;2023-04-16T03:55:42;9.10;99.90
28010;DHT22;15334;49.494;8.410;2023-04-16T03:58:12;9.10;99.90
28010;DHT22;15334;49.494;8.410;2023-04-16T04:00:40;9.10;99.90
28010;DHT22;15334;49.494;8.410;2023-04-16T04:03:09;9.20;99.90
28010;DHT22;15334;49.494;8.410;2023-04-16T04:05:39;9.20;99.90
28010;DHT22;15334;49.494;8.410;2023-04-16T04:08:07;9.10;99.90
28010;DHT22;15334;49.494;8.410;2023-04-16T04:10:36;9.10;99.90
28010;DHT22;15334;49.494;8.410;2023-04-16T04:13:05;9.10;99.90
28010;DHT22;15334;49.494;8.410;2023-04-16T04:15:35;9.10;99.90
28010;DHT22;15334;49.494;8.410;2023-04-16T04:18:03;9.20;99.90
28010;DHT22;15334;49.494;8.410;2023-04-16T04:20:31;9.20;99.90
28010;DHT22;15334;49.494;8.410;2023-04-16T04:23:00;9.20;99.90
28010;DHT22;15334;49.494;8.410;2023-04-16T04:25:28;9.20;99.90
28010;DHT22;15334;49.494;8.410;2023-04-16T04:27:56;9.20;99.90
28010;DHT22;15334;49.494;8.410;2023-04-16T04:30:25;9.20;99.90
28010;DHT22;15334;49.494;8.410;2023-04-16T04:32:54;9.20;99.90
28010;DHT22;15334;49.494;8.410;2023-04-16T04:35:26;9.30;99.90
28010;DHT22;15334;49.494;8.410;2023-04-16T04:38:09;9.20;99.90
28010;DHT22;15334;49.494;8.410;2023-04-16T04:41:06;9.20;99.90
28010;DHT22;15334;49.494;8.410;2023-04-16T04:44:01;9.20;99.90
28010;DHT22;15334;49.494;8.410;2023-04-16T04:47:01;9.20;99.90
28010;DHT22;15334;49.494;8.410;2023-04-16T04:49:57;9.20;99.90
28010;DHT22;15334;49.494;8.410;2023-04-16T05:05:22;9.30;99.90
28010;DHT22;15334;49.494;8.410;2023-04-16T05:08:28;9.20;99.90
28010;DHT22;15334;49.494;8.410;2023-04-16T05:11:34;9.10;99.90
28010;DHT22;15334;49.494;8.410;2023-04-16T05:14:24;9.20;99.90
28010;DHT22;15334;49.494;8.410;2023-04-16T05:17:02;9.20;99.90
28010;DHT22;15334;49.494;8.410;2023-04-16T05:19:51;9.20;99.90
28010;DHT22;15334;49.494;8.410;2023-04-16T05:22:31;9.30;99.90
28010;DHT22;15334;49.494;8.410;2023-04-16T05:29:06;9.30;99.90
28010;DHT22;15334;49.494;8.410;2023-04-16T05:32:09;9.30;99.90
28010;DHT22;15334;49.494;8.410;2023-04-16T05:35:02;9.40;99.90
28010;DHT22;15334;49.494;8.410;2023-04-16T05:38:01;9.40;99.90
28010;DHT22;15334;49.494;8.410;2023-04-16T05:40:59;9.50;99.90
28010;DHT22;15334;49.494;8.410;2023-04-16T05:43:37;9.50;99.90
28010;DHT22;15334;49.494;8.410;2023-04-16T05:49:58;9.50;99.90
28010;DHT22;15334;49.494;8.410;2023-04-16T05:52:55;9.50;99.90
28010;DHT22;15334;49.494;8.410;2023-04-16T05:55:37;9.40;99.90
28010;DHT22;15334;49.494;8.410;2023-04-16T05:58:43;9.50;99.90
28010;DHT22;15334;49.494;8.410;2023-04-16T06:01:20;9.60;99.90
28010;DHT22;15334;49.494;8.410;2023-04-16T06:03:48;9.60;99.90
28010;DHT22;15334;49.494;8.410;2023-04-16T06:06:16;9.50;99.90
28010;DHT22;15334;49.494;8.410;2023-04-16T06:08:46;9.50;99.90
28010;DHT22;15334;49.494;8.410;2023-04-16T06:11:16;9.60;99.90
28010;DHT22;15334;49.494;8.410;2023-04-16T06:13:44;9.50;99.90
28010;DHT22;15334;49.494;8.410;2023-04-16T06:16:12;9.60;99.90
28010;DHT22;15334;49.494;8.410;2023-04-16T06:18:40;9.60;99.90
28010;DHT22;15334;49.494;8.410;2023-04-16T06:21:09;9.50;99.90
28010;DHT22;15334;49.494;8.410;2023-04-16T06:23:37;9.60;99.90
28010;DHT22;15334;49.494;8.410;2023-04-16T06:26:06;9.60;99.90
28010;DHT22;15334;49.494;8.410;2023-04-16T06:28:34;9.60;99.90
28010;DHT22;15334;49.494;8.410;2023-04-16T06:31:03;9.60;99.90
28010;DHT22;15334;49.494;8.410;2023-04-16T06:33:31;9.70;99.90
28010;DHT22;15334;49.494;8.410;2023-04-16T06:35:59;9.70;99.90
28010;DHT22;15334;49.494;8.410;2023-04-16T06:38:27;9.60;99.90
28010;DHT22;15334;49.494;8.410;2023-04-16T06:40:55;9.60;99.90
28010;DHT22;15334;49.494;8.410;2023-04-16T06:43:25;9.60;99.90
28010;DHT22;15334;49.494;8.410;2023-04-16T06:45:56;9.60;99.90
28010;DHT22;15334;49.494;8.410;2023-04-16T06:48:24;9.60;99.90
28010;DHT22;15334;49.494;8.410;2023-04-16T06:50:53;9.60;99.90
28010;DHT22;15334;49.494;8.410;2023-04-16T06:53:21;9.50;99.90
28010;DHT22;15334;49.494;8.410;2023-04-16T06:55:50;9.50;99.90
28010;DHT22;15334;49.494;8.410;2023-04-16T06:58:19;9.50;99.90
28010;DHT22;15334;49.494;8.410;2023-04-16T07:00:54;9.40;99.90
28010;DHT22;15334;49.494;8.410;2023-04-16T07:03:22;9.40;99.90
28010;DHT22;15334;49.494;8.410;2023-04-16T07:05:50;9.40;99.90
28010;DHT22;15334;49.494;8.410;2023-04-16T07:08:18;9.50;99.90
28010;DHT22;15334;49.494;8.410;2023-04-16T07:10:46;9.60;99.90
28010;DHT22;15334;49.494;8.410;2023-04-16T07:13:16;9.70;99.90
28010;DHT22;15334;49.494;8.410;2023-04-16T07:15:45;9.70;99.90
28010;DHT22;15334;49.494;8.410;2023-04-16T07:18:15;9.80;99.90
28010;DHT22;15334;49.494;8.410;2023-04-16T07:20:46;9.70;99.90
28010;DHT22;15334;49.494;8.410;2023-04-16T07:23:14;9.80;99.90
28010;DHT22;15334;49.494;8.410;2023-04-16T07:25:42;9.80;99.90
28010;DHT22;15334;49.494;8.410;2023-04-16T07:28:10;10.00;99.90
28010;DHT22;15334;49.494;8.410;2023-04-16T07:30:38;9.90;99.90
28010;DHT22;15334;49.494;8.410;2023-04-16T07:33:06;10.00;99.90
28010;DHT22;15334;49.494;8.410;2023-04-16T07:35:36;10.00;99.90
28010;DHT22;15334;49.494;8.410;2023-04-16T07:38:07;9.90;99.90
28010;DHT22;15334;49.494;8.410;2023-04-16T07:40:35;9.90;99.90
28010;DHT22;15334;49.494;8.410;2023-04-16T07:43:04;9.90;99.90
28010;DHT22;15334;49.494;8.410;2023-04-16T07:45:32;9.90;99.90
28010;DHT22;15334;49.494;8.410;2023-04-16T07:48:00;10.00;99.90
28010;DHT22;15334;49.494;8.410;2023-04-16T07:50:28;10.00;99.90
28010;DHT22;15334;49.494;8.410;2023-04-16T07:52:59;10.00;99.90
28010;DHT22;15334;49.494;8.410;2023-04-16T07:55:27;10.10;99.90
28010;DHT22;15334;49.494;8.410;2023-04-16T07:57:55;10.00;99.90
28010;DHT22;15334;49.494;8.410;2023-04-16T08:00:23;10.00;99.90
28010;DHT22;15334;49.494;8.410;2023-04-16T08:02:51;10.10;99.90
28010;DHT22;15334;49.494;8.410;2023-04-16T08:05:20;10.10;99.90
28010;DHT22;15334;49.494;8.410;2023-04-16T08:07:48;10.20;99.90
28010;DHT22;15334;49.494;8.410;2023-04-16T08:10:17;10.20;99.90
28010;DHT22;15334;49.494;8.410;2023-04-16T08:12:45;10.30;99.90
28010;DHT22;15334;49.494;8.410;2023-04-16T08:15:13;10.40;99.90
28010;DHT22;15334;49.494;8.410;2023-04-16T08:17:41;10.40;99.90
28010;DHT22;15334;49.494;8.410;2023-04-16T08:20:10;10.50;99.90
28010;DHT22;15334;49.494;8.410;2023-04-16T08:22:44;10.40;99.90
28010;DHT22;15334;49.494;8.410;2023-04-16T08:25:12;10.50;99.90
28010;DHT22;15334;49.494;8.410;2023-04-16T08:27:45;10.60;99.90
28010;DHT22;15334;49.494;8.410;2023-04-16T08:30:13;10.60;99.90
28010;DHT22;15334;49.494;8.410;2023-04-16T08:32:48;10.70;99.90
28010;DHT22;15334;49.494;8.410;2023-04-16T08:35:17;10.70;99.90
28010;DHT22;15334;49.494;8.410;2023-04-16T08:37:56;10.80;99.90
28010;DHT22;15334;49.494;8.410;2023-04-16T08:40:37;10.90;99.90
28010;DHT22;15334;49.494;8.410;2023-04-16T08:43:12;10.80;99.90
28010;DHT22;15334;49.494;8.410;2023-04-16T08:45:42;10.80;99.90
28010;DHT22;15334;49.494;8.410;2023-04-16T08:48:11;10.80;99.90
28010;DHT22;15334;49.494;8.410;2023-04-16T08:50:40;10.70;99.90
28010;DHT22;15334;49.494;8.410;2023-04-16T08:53:10;10.50;99.90
28010;DHT22;15334;49.494;8.410;2023-04-16T08:55:47;10.50;99.90
28010;DHT22;15334;49.494;8.410;2023-04-16T08:58:18;10.30;99.90
28010;DHT22;15334;49.494;8.410;2023-04-16T09:00:47;10.20;99.90
28010;DHT22;15334;49.494;8.410;2023-04-16T09:03:16;10.10;99.90
28010;DHT22;15334;49.494;8.410;2023-04-16T09:05:49;10.00;99.90
28010;DHT22;15334;49.494;8.410;2023-04-16T09:08:24;10.00;99.90
28010;DHT22;15334;49.494;8.410;2023-04-16T09:10:53;10.00;99.90
28010;DHT22;15334;49.494;8.410;2023-04-16T09:13:24;9.90;99.90
28010;DHT22;15334;49.494;8.410;2023-04-16T09:15:53;9.80;99.90
28010;DHT22;15334;49.494;8.410;2023-04-16T09:18:22;9.80;99.90
28010;DHT22;15334;49.494;8.410;2023-04-16T09:20:51;9.80;99.90
28010;DHT22;15334;49.494;8.410;2023-04-16T09:23:19;9.70;99.90
28010;DHT22;15334;49.494;8.410;2023-04-16T09:25:47;9.70;99.90
28010;DHT22;15334;49.494;8.410;2023-04-16T09:28:40;9.70;99.90
28010;DHT22;15334;49.494;8.410;2023-04-16T09:31:09;9.80;99.90
28010;DHT22;15334;49.494;8.410;2023-04-16T09:33:37;9.70;99.90
28010;DHT22;15334;49.494;8.410;2023-04-16T09:36:06;9.60;99.90
28010;DHT22;15334;49.494;8.410;2023-04-16T09:38:47;9.60;99.90
28010;DHT22;15334;49.494;8.410;2023-04-16T09:41:26;9.70;99.90
28010;DHT22;15334;49.494;8.410;2023-04-16T09:44:03;9.70;99.90
28010;DHT22;15334;49.494;8.410;2023-04-16T09:46:33;9.70;99.90
28010;DHT22;15334;49.494;8.410;2023-04-16T09:49:04;9.80;99.90
28010;DHT22;15334;49.494;8.410;2023-04-16T09:51:48;9.70;99.90
28010;DHT22;15334;49.494;8.410;2023-04-16T09:55:06;9.60;99.90
28010;DHT22;15334;49.494;8.410;2023-04-16T09:58:11;9.70;99.90
28010;DHT22;15334;49.494;8.410;2023-04-16T10:01:10;9.80;99.90
28010;DHT22;15334;49.494;8.410;2023-04-16T10:04:12;9.70;99.90
28010;DHT22;15334;49.494;8.410;2023-04-16T10:13:17;9.70;99.90
28010;DHT22;15334;49.494;8.410;2023-04-16T10:15:47;9.70;99.90
28010;DHT22;15334;49.494;8.410;2023-04-16T10:18:47;9.80;99.90
28010;DHT22;15334;49.494;8.410;2023-04-16T10:21:47;9.80;99.90
28010;DHT22;15334;49.494;8.410;2023-04-16T10:24:32;9.90;99.90
28010;DHT22;15334;49.494;8.410;2023-04-16T10:27:06;9.90;99.90
28010;DHT22;15334;49.494;8.410;2023-04-16T10:30:14;9.90;99.90
28010;DHT22;15334;49.494;8.410;2023-04-16T10:32:49;9.90;99.90
28010;DHT22;15334;49.494;8.410;2023-04-16T10:35:40;9.90;99.90
28010;DHT22;15334;49.494;8.410;2023-04-16T10:38:39;10.10;99.90
28010;DHT22;15334;49.494;8.410;2023-04-16T10:41:18;10.00;99.90
28010;DHT22;15334;49.494;8.410;2023-04-16T10:44:05;10.10;99.90
28010;DHT22;15334;49.494;8.410;2023-04-16T10:46:45;10.10;99.90
28010;DHT22;15334;49.494;8.410;2023-04-16T10:50:00;10.30;99.90
28010;DHT22;15334;49.494;8.410;2023-04-16T10:52:48;10.30;99.90
28010;DHT22;15334;49.494;8.410;2023-04-16T10:55:19;10.40;99.90
28010;DHT22;15334;49.494;8.410;2023-04-16T10:58:26;10.50;99.90
28010;DHT22;15334;49.494;8.410;2023-04-16T11:04:41;10.60;99.90
28010;DHT22;15334;49.494;8.410;2023-04-16T11:07:32;10.50;99.90
28010;DHT22;15334;49.494;8.410;2023-04-16T11:10:38;10.50;99.90
28010;DHT22;15334;49.494;8.410;2023-04-16T11:13:38;10.60;99.90
28010;DHT22;15334;49.494;8.410;2023-04-16T11:16:20;10.50;99.90
28010;DHT22;15334;49.494;8.410;2023-04-16T11:19:16;10.50;99.90
28010;DHT22;15334;49.494;8.410;2023-04-16T11:21:45;10.60;99.90
28010;DHT22;15334;49.494;8.410;2023-04-16T11:24:15;10.60;99.90
28010;DHT22;15334;49.494;8.410;2023-04-16T11:26:45;10.70;99.90
28010;DHT22;15334;49.494;8.410;2023-04-16T11:29:19;10.70;99.90
28010;DHT22;15334;49.494;8.410;2023-04-16T11:31:49;10.80;99.90
28010;DHT22;15334;49.494;8.410;2023-04-16T11:34:28;10.80;99.90
28010;DHT22;15334;49.494;8.410;2023-04-16T11:37:45;10.80;99.90
28010;DHT22;15334;49.494;8.410;2023-04-16T11:40:53;10.80;99.90
28010;DHT22;15334;49.494;8.410;2023-04-16T11:43:34;10.90;99.90
28010;DHT22;15334;49.494;8.410;2023-04-16T11:46:13;10.90;99.90
28010;DHT22;15334;49.494;8.410;2023-04-16T11:49:17;10.90;99.90
28010;DHT22;15334;49.494;8.410;2023-04-16T11:55:21;11.00;99.90
28010;DHT22;15334;49.494;8.410;2023-04-16T11:58:25;11.00;99.90
28010;DHT22;15334;49.494;8.410;2023-04-16T12:01:20;11.00;99.90
28010;DHT22;15334;49.494;8.410;2023-04-16T12:04:02;11.10;99.90
28010;DHT22;15334;49.494;8.410;2023-04-16T12:07:11;11.00;99.90
28010;DHT22;15334;49.494;8.410;2023-04-16T12:09:41;11.00;99.90
28010;DHT22;15334;49.494;8.410;2023-04-16T12:12:27;11.00;99.90
28010;DHT22;15334;49.494;8.410;2023-04-16T12:14:59;11.00;99.90
28010;DHT22;15334;49.494;8.410;2023-04-16T12:17:30;11.00;99.90
28010;DHT22;15334;49.494;8.410;2023-04-16T12:20:00;11.10;99.90
28010;DHT22;15334;49.494;8.410;2023-04-16T12:22:44;11.00;99.90
28010;DHT22;15334;49.494;8.410;2023-04-16T12:25:14;11.10;99.90
28010;DHT22;15334;49.494;8.410;2023-04-16T12:27:46;11.10;99.90
28010;DHT22;15334;49.494;8.410;2023-04-16T12:30:24;11.00;99.90
28010;DHT22;15334;49.494;8.410;2023-04-16T12:33:14;11.10;99.90
28010;DHT22;15334;49.494;8.410;2023-04-16T12:36:00;11.10;99.90
28010;DHT22;15334;49.494;8.410;2023-04-16T12:38:43;11.10;99.90
28010;DHT22;15334;49.494;8.410;2023-04-16T12:41:12;11.20;99.90
28010;DHT22;15334;49.494;8.410;2023-04-16T12:43:40;11.20;99.90
28010;DHT22;15334;49.494;8.410;2023-04-16T12:46:20;11.30;99.90
28010;DHT22;15334;49.494;8.410;2023-04-16T12:53:03;11.50;99.90
28010;DHT22;15334;49.494;8.410;2023-04-16T12:56:04;11.50;99.90
28010;DHT22;15334;49.494;8.410;2023-04-16T12:59:05;11.40;99.90
28010;DHT22;15334;49.494;8.410;2023-04-16T13:02:10;11.40;99.90
28010;DHT22;15334;49.494;8.410;2023-04-16T13:05:17;11.20;99.90
28010;DHT22;15334;49.494;8.410;2023-04-16T13:08:01;11.20;99.90
28010;DHT22;15334;49.494;8.410;2023-04-16T13:10:47;11.20;99.90
28010;DHT22;15334;49.494;8.410;2023-04-16T13:13:50;11.10;99.90
28010;DHT22;15334;49.494;8.410;2023-04-16T13:16:40;11.10;99.90
28010;DHT22;15334;49.494;8.410;2023-04-16T13:23:17;11.10;99.90
28010;DHT22;15334;49.494;8.410;2023-04-16T13:26:09;11.10;99.90
28010;DHT22;15334;49.494;8.410;2023-04-16T13:28:50;11.10;99.90
28010;DHT22;15334;49.494;8.410;2023-04-16T13:31:50;11.10;99.90
28010;DHT22;15334;49.494;8.410;2023-04-16T13:34:53;11.10;99.90
28010;DHT22;15334;49.494;8.410;2023-04-16T13:37:35;11.10;99.90
28010;DHT22;15334;49.494;8.410;2023-04-16T13:40:41;11.10;99.90
28010;DHT22;15334;49.494;8.410;2023-04-16T13:43:23;11.10;99.90
28010;DHT22;15334;49.494;8.410;2023-04-16T13:45:56;11.20;99.90
28010;DHT22;15334;49.494;8.410;2023-04-16T13:48:35;11.30;99.90
28010;DHT22;15334;49.494;8.410;2023-04-16T13:51:22;11.20;99.90
28010;DHT22;15334;49.494;8.410;2023-04-16T13:54:02;11.20;99.90
28010;DHT22;15334;49.494;8.410;2023-04-16T13:56:54;11.20;99.90
28010;DHT22;15334;49.494;8.410;2023-04-16T13:59:41;11.20;99.90
28010;DHT22;15334;49.494;8.410;2023-04-16T14:02:37;11.30;99.90
28010;DHT22;15334;49.494;8.410;2023-04-16T14:05:23;11.20;99.90
28010;DHT22;15334;49.494;8.410;2023-04-16T14:08:02;11.30;99.90
28010;DHT22;15334;49.494;8.410;2023-04-16T14:10:42;11.30;99.90
28010;DHT22;15334;49.494;8.410;2023-04-16T14:13:29;11.30;99.90
28010;DHT22;15334;49.494;8.410;2023-04-16T14:16:11;11.40;99.90
28010;DHT22;15334;49.494;8.410;2023-04-16T14:18:46;11.40;99.90
28010;DHT22;15334;49.494;8.410;2023-04-16T14:21:24;11.40;99.90
28010;DHT22;15334;49.494;8.410;2023-04-16T14:24:11;11.40;99.90
28010;DHT22;15334;49.494;8.410;2023-04-16T14:27:05;11.50;99.90
28010;DHT22;15334;49.494;8.410;2023-04-16T14:29:58;11.50;99.90
28010;DHT22;15334;49.494;8.410;2023-04-16T14:32:52;11.50;99.90
28010;DHT22;15334;49.494;8.410;2023-04-16T14:36:22;11.50;99.90
28010;DHT22;15334;49.494;8.410;2023-04-16T14:39:21;11.40;99.90
28010;DHT22;15334;49.494;8.410;2023-04-16T14:42:10;11.40;99.90
28010;DHT22;15334;49.494;8.410;2023-04-16T14:44:49;11.40;99.90
28010;DHT22;15334;49.494;8.410;2023-04-16T14:47:47;11.30;99.90
28010;DHT22;15334;49.494;8.410;2023-04-16T14:50:25;11.30;99.90
28010;DHT22;15334;49.494;8.410;2023-04-16T14:53:26;11.40;99.90
28010;DHT22;15334;49.494;8.410;2023-04-16T14:56:15;11.30;99.90
28010;DHT22;15334;49.494;8.410;2023-04-16T14:59:30;11.20;99.90
28010;DHT22;15334;49.494;8.410;2023-04-16T15:02:43;11.30;99.90
28010;DHT22;15334;49.494;8.410;2023-04-16T15:05:46;11.30;99.90
28010;DHT22;15334;49.494;8.410;2023-04-16T15:09:08;11.30;99.90
28010;DHT22;15334;49.494;8.410;2023-04-16T15:12:27;11.30;99.90
28010;DHT22;15334;49.494;8.410;2023-04-16T15:15:16;11.30;99.90
28010;DHT22;15334;49.494;8.410;2023-04-16T15:18:17;11.30;99.90
28010;DHT22;15334;49.494;8.410;2023-04-16T15:21:36;11.40;99.90
28010;DHT22;15334;49.494;8.410;2023-04-16T15:28:21;11.50;99.90
28010;DHT22;15334;49.494;8.410;2023-04-16T15:31:19;11.60;99.90
28010;DHT22;15334;49.494;8.410;2023-04-16T15:34:34;11.70;99.90
28010;DHT22;15334;49.494;8.410;2023-04-16T15:37:32;11.70;99.90
28010;DHT22;15334;49.494;8.410;2023-04-16T15:43:53;11.90;99.90
28010;DHT22;15334;49.494;8.410;2023-04-16T15:46:21;11.90;99.90
28010;DHT22;15334;49.494;8.410;2023-04-16T15:48:49;12.00;99.90
28010;DHT22;15334;49.494;8.410;2023-04-16T15:51:17;12.10;99.90
28010;DHT22;15334;49.494;8.410;2023-04-16T15:53:45;12.10;99.90
28010;DHT22;15334;49.494;8.410;2023-04-16T15:56:15;12.20;99.90
28010;DHT22;15334;49.494;8.410;2023-04-16T15:58:43;12.30;99.90
28010;DHT22;15334;49.494;8.410;2023-04-16T16:01:27;12.30;99.90
28010;DHT22;15334;49.494;8.410;2023-04-16T16:04:21;12.40;99.90
28010;DHT22;15334;49.494;8.410;2023-04-16T16:07:11;12.40;99.90
28010;DHT22;15334;49.494;8.410;2023-04-16T16:13:04;12.40;99.90
28010;DHT22;15334;49.494;8.410;2023-04-16T16:15:57;12.30;99.90
28010;DHT22;15334;49.494;8.410;2023-04-16T16:18:43;12.30;99.90
28010;DHT22;15334;49.494;8.410;2023-04-16T16:21:34;12.40;99.90
28010;DHT22;15334;49.494;8.410;2023-04-16T16:24:29;12.40;99.90
28010;DHT22;15334;49.494;8.410;2023-04-16T16:27:04;12.40;99.90
28010;DHT22;15334;49.494;8.410;2023-04-16T16:30:17;12.40;99.90
28010;DHT22;15334;49.494;8.410;2023-04-16T16:33:01;12.30;99.90
28010;DHT22;15334;49.494;8.410;2023-04-16T16:35:42;12.30;99.90
28010;DHT22;15334;49.494;8.410;2023-04-16T16:38:39;12.30;99.90
28010;DHT22;15334;49.494;8.410;2023-04-16T16:41:44;12.20;99.90
28010;DHT22;15334;49.494;8.410;2023-04-16T16:44:37;12.20;99.90
28010;DHT22;15334;49.494;8.410;2023-04-16T16:47:17;12.10;99.90
28010;DHT22;15334;49.494;8.410;2023-04-16T16:50:14;12.20;99.90
28010;DHT22;15334;49.494;8.410;2023-04-16T16:53:12;12.20;99.90
28010;DHT22;15334;49.494;8.410;2023-04-16T16:56:05;12.20;99.90
28010;DHT22;15334;49.494;8.410;2023-04-16T16:59:04;12.30;99.90
28010;DHT22;15334;49.494;8.410;2023-04-16T17:01:59;12.30;99.90
28010;DHT22;15334;49.494;8.410;2023-04-16T17:04:46;12.30;99.90
28010;DHT22;15334;49.494;8.410;2023-04-16T17:07:25;12.30;99.90
28010;DHT22;15334;49.494;8.410;2023-04-16T17:10:31;12.40;99.90
28010;DHT22;15334;49.494;8.410;2023-04-16T17:13:42;12.40;99.90
28010;DHT22;15334;49.494;8.410;2023-04-16T17:16:43;12.30;99.90
28010;DHT22;15334;49.494;8.410;2023-04-16T17:20:00;12.30;99.90
28010;DHT22;15334;49.494;8.410;2023-04-16T17:23:33;12.40;99.90
28010;DHT22;15334;49.494;8.410;2023-04-16T17:26:38;12.30;99.90
28010;DHT22;15334;49.494;8.410;2023-04-16T17:29:33;12.30;99.90
28010;DHT22;15334;49.494;8.410;2023-04-16T17:32:17;12.30;99.90
28010;DHT22;15334;49.494;8.410;2023-04-16T17:35:02;12.30;99.90
28010;DHT22;15334;49.494;8.410;2023-04-16T17:37:30;12.40;99.90
28010;DHT22;15334;49.494;8.410;2023-04-16T17:39:58;12.40;99.90
28010;DHT22;15334;49.494;8.410;2023-04-16T17:42:28;12.40;99.90
28010;DHT22;15334;49.494;8.410;2023-04-16T17:44:56;12.50;99.90
28010;DHT22;15334;49.494;8.410;2023-04-16T17:47:24;12.50;99.90
28010;DHT22;15334;49.494;8.410;2023-04-16T17:49:52;12.50;99.90
28010;DHT22;15334;49.494;8.410;2023-04-16T17:52:21;12.40;99.90
28010;DHT22;15334;49.494;8.410;2023-04-16T17:54:49;12.50;99.90
28010;DHT22;15334;49.494;8.410;2023-04-16T17:57:18;12.60;99.90
28010;DHT22;15334;49.494;8.410;2023-04-16T17:59:48;12.60;99.90
28010;DHT22;15334;49.494;8.410;2023-04-16T18:02:16;12.70;99.90
28010;DHT22;15334;49.494;8.410;2023-04-16T18:04:44;12.70;99.90
28010;DHT22;15334;49.494;8.410;2023-04-16T18:07:14;12.40;99.90
28010;DHT22;15334;49.494;8.410;2023-04-16T18:09:42;12.10;99.90